LGR888 PAGY-PAKT
Flight info
| Callsign | LGR888 |
|---|---|
| Flight time | 2h 8m |
| Altitude | 9000 |
| Route | SSR DOOZI |
| Aircraft | C172/L-SFG/C |
Departure
| Time | 2026-04-23 13:02 |
|---|---|
| Airport | Skagway Airport (PAGY) |
Arrival
| Time | 2026-04-23 15:10 |
|---|---|
| Airport | Ketchikan International Airport (PAKT) |
| Time | Latitude | Longitude | Altitude | Speed | Heading |
|---|---|---|---|---|---|
| 2026-04-23 12:47 | 59.45039 | -135.33044 | 0 ft | 0 kts | 136° |
| 2026-04-23 12:55 | 59.45052 | -135.33006 | 44 ft | 13 kts | 80° |
| 2026-04-23 12:56 | 59.45172 | -135.32829 | 72 ft | 40 kts | 38° |
| 2026-04-23 12:56 | 59.45408 | -135.32346 | 141 ft | 50 kts | 24° |
| 2026-04-23 12:56 | 59.45607 | -135.32268 | 113 ft | 19 kts | 24° |
| 2026-04-23 12:56 | 59.45655 | -135.32283 | 43 ft | 4 kts | 12° |
| 2026-04-23 12:57 | 59.45658 | -135.32272 | 7 ft | 4 kts | 24° |
| 2026-04-23 12:57 | 59.45665 | -135.32269 | 0 ft | 0 kts | 10° |
| 2026-04-23 12:57 | 59.45666 | -135.32269 | 0 ft | 2 kts | 31° |
| 2026-04-23 12:57 | 59.45702 | -135.32187 | 2 ft | 11 kts | 76° |
| 2026-04-23 12:58 | 59.45757 | -135.32092 | 5 ft | 11 kts | 75° |
| 2026-04-23 12:58 | 59.45825 | -135.31959 | 9 ft | 11 kts | 79° |
| 2026-04-23 12:58 | 59.45896 | -135.31813 | 8 ft | 14 kts | 76° |
| 2026-04-23 12:58 | 59.45978 | -135.31662 | 5 ft | 11 kts | 71° |
| 2026-04-23 12:59 | 59.46029 | -135.31557 | 6 ft | 13 kts | 78° |
| 2026-04-23 12:59 | 59.46091 | -135.31447 | 7 ft | 9 kts | 81° |
| 2026-04-23 12:59 | 59.46166 | -135.31294 | 6 ft | 18 kts | 68° |
| 2026-04-23 12:59 | 59.46240 | -135.31163 | 3 ft | 11 kts | 79° |
| 2026-04-23 13:00 | 59.46289 | -135.31059 | 5 ft | 13 kts | 77° |
| 2026-04-23 13:00 | 59.46370 | -135.30910 | 4 ft | 13 kts | 77° |
| 2026-04-23 13:00 | 59.46430 | -135.30811 | 9 ft | 8 kts | 34° |
| 2026-04-23 13:00 | 59.46465 | -135.30818 | 38 ft | 14 kts | 265° |
| 2026-04-23 13:01 | 59.46274 | -135.31177 | 33 ft | 57 kts | 257° |
| 2026-04-23 13:01 | 59.46001 | -135.31812 | 229 ft | 55 kts | 256° |
| 2026-04-23 13:01 | 59.45746 | -135.32257 | 445 ft | 48 kts | 266° |
| 2026-04-23 13:01 | 59.45790 | -135.32564 | 665 ft | 44 kts | 75° |
| 2026-04-23 13:02 | 59.45587 | -135.32344 | 705 ft | 47 kts | 238° |
| 2026-04-23 13:02 | 59.45221 | -135.32799 | 696 ft | 76 kts | 234° |
| 2026-04-23 13:02 | 59.44639 | -135.33116 | 680 ft | 96 kts | 185° |
| 2026-04-23 13:02 | 59.44028 | -135.33038 | 972 ft | 81 kts | 198° |
| 2026-04-23 13:03 | 59.43506 | -135.33423 | 1229 ft | 78 kts | 224° |
| 2026-04-23 13:03 | 59.43034 | -135.33838 | 1418 ft | 73 kts | 210° |
| 2026-04-23 13:03 | 59.42611 | -135.33652 | 1681 ft | 58 kts | 190° |
| 2026-04-23 13:03 | 59.42106 | -135.33754 | 1566 ft | 102 kts | 192° |
| 2026-04-23 13:04 | 59.41346 | -135.33673 | 1476 ft | 109 kts | 159° |
| 2026-04-23 13:04 | 59.40864 | -135.32703 | 1693 ft | 93 kts | 116° |
| 2026-04-23 13:04 | 59.40705 | -135.31918 | 2263 ft | 55 kts | 154° |
| 2026-04-23 13:04 | 59.40284 | -135.31766 | 2450 ft | 78 kts | 193° |
| 2026-04-23 13:05 | 59.39770 | -135.32274 | 2622 ft | 89 kts | 225° |
| 2026-04-23 13:05 | 59.39269 | -135.33087 | 2754 ft | 94 kts | 221° |
| 2026-04-23 13:05 | 59.38721 | -135.33519 | 3034 ft | 82 kts | 192° |
| 2026-04-23 13:05 | 59.38167 | -135.33168 | 3153 ft | 88 kts | 145° |
| 2026-04-23 13:06 | 59.37135 | -135.33415 | 3689 ft | 79 kts | 190° |
| 2026-04-23 13:06 | 59.36658 | -135.33804 | 3982 ft | 75 kts | 220° |
| 2026-04-23 13:06 | 59.36179 | -135.34166 | 4197 ft | 80 kts | 175° |
| 2026-04-23 13:07 | 59.35487 | -135.33658 | 4516 ft | 80 kts | 179° |
| 2026-04-23 13:07 | 59.35126 | -135.33769 | 4694 ft | 79 kts | 193° |
| 2026-04-23 13:07 | 59.34597 | -135.33934 | 4966 ft | 78 kts | 190° |
| 2026-04-23 13:07 | 59.34069 | -135.34036 | 5230 ft | 78 kts | 188° |
| 2026-04-23 13:08 | 59.33543 | -135.34091 | 5486 ft | 77 kts | 186° |
| 2026-04-23 13:08 | 59.33010 | -135.34119 | 5747 ft | 77 kts | 185° |
| 2026-04-23 13:08 | 59.32477 | -135.34117 | 6007 ft | 77 kts | 185° |
| 2026-04-23 13:08 | 59.31952 | -135.34108 | 6267 ft | 76 kts | 186° |
| 2026-04-23 13:09 | 59.31422 | -135.34085 | 6528 ft | 75 kts | 186° |
| 2026-04-23 13:09 | 59.30911 | -135.34056 | 6786 ft | 74 kts | 188° |
| 2026-04-23 13:09 | 59.30399 | -135.34027 | 7043 ft | 73 kts | 189° |
| 2026-04-23 13:09 | 59.29895 | -135.33989 | 7300 ft | 73 kts | 191° |
| 2026-04-23 13:10 | 59.29402 | -135.33958 | 7556 ft | 72 kts | 192° |
| 2026-04-23 13:10 | 59.28906 | -135.33923 | 7808 ft | 71 kts | 194° |
| 2026-04-23 13:10 | 59.28425 | -135.33890 | 8052 ft | 70 kts | 195° |
| 2026-04-23 13:10 | 59.27945 | -135.33852 | 8310 ft | 68 kts | 199° |
| 2026-04-23 13:11 | 59.27485 | -135.33817 | 8567 ft | 66 kts | 201° |
| 2026-04-23 13:11 | 59.27042 | -135.33778 | 8825 ft | 62 kts | 203° |
| 2026-04-23 13:11 | 59.26566 | -135.33772 | 8955 ft | 81 kts | 200° |
| 2026-04-23 13:11 | 59.25931 | -135.33762 | 8977 ft | 101 kts | 191° |
| 2026-04-23 13:12 | 59.25188 | -135.33699 | 8985 ft | 110 kts | 186° |
| 2026-04-23 13:12 | 59.24402 | -135.33621 | 8990 ft | 114 kts | 186° |
| 2026-04-23 13:12 | 59.23605 | -135.33543 | 8990 ft | 117 kts | 186° |
| 2026-04-23 13:12 | 59.22789 | -135.33470 | 8990 ft | 117 kts | 186° |
| 2026-04-23 13:13 | 59.21973 | -135.33401 | 8987 ft | 117 kts | 186° |
| 2026-04-23 13:13 | 59.21153 | -135.33340 | 8991 ft | 117 kts | 186° |
| 2026-04-23 13:13 | 59.20338 | -135.33276 | 8985 ft | 117 kts | 186° |
| 2026-04-23 13:13 | 59.19521 | -135.33214 | 8983 ft | 117 kts | 186° |
| 2026-04-23 13:14 | 59.18760 | -135.33159 | 9003 ft | 117 kts | 187° |
| 2026-04-23 13:14 | 59.17940 | -135.33104 | 8987 ft | 119 kts | 186° |
| 2026-04-23 13:14 | 59.17115 | -135.33037 | 8988 ft | 119 kts | 186° |
| 2026-04-23 13:14 | 59.16285 | -135.32974 | 8988 ft | 119 kts | 186° |
| 2026-04-23 13:15 | 59.15459 | -135.32912 | 8992 ft | 120 kts | 187° |
| 2026-04-23 13:15 | 59.14624 | -135.32851 | 8989 ft | 120 kts | 187° |
| 2026-04-23 13:15 | 59.13820 | -135.32791 | 8988 ft | 120 kts | 187° |
| 2026-04-23 13:15 | 59.13088 | -135.32716 | 9148 ft | 109 kts | 193° |
| 2026-04-23 13:16 | 59.12259 | -135.32690 | 8992 ft | 123 kts | 187° |
| 2026-04-23 13:16 | 59.11408 | -135.32625 | 8979 ft | 122 kts | 186° |
| 2026-04-23 13:16 | 59.10560 | -135.32555 | 8978 ft | 122 kts | 186° |
| 2026-04-23 13:16 | 59.09719 | -135.32486 | 8978 ft | 121 kts | 187° |
| 2026-04-23 13:17 | 59.08872 | -135.32425 | 8976 ft | 120 kts | 187° |
| 2026-04-23 13:17 | 59.08046 | -135.32365 | 8972 ft | 120 kts | 186° |
| 2026-04-23 13:17 | 59.07214 | -135.32301 | 8974 ft | 120 kts | 186° |
| 2026-04-23 13:17 | 59.06377 | -135.32239 | 8977 ft | 120 kts | 187° |
| 2026-04-23 13:18 | 59.05542 | -135.32178 | 8979 ft | 120 kts | 187° |
| 2026-04-23 13:18 | 59.04704 | -135.32118 | 8981 ft | 121 kts | 186° |
| 2026-04-23 13:18 | 59.03871 | -135.32054 | 8983 ft | 121 kts | 186° |
| 2026-04-23 13:18 | 59.03032 | -135.31995 | 8987 ft | 121 kts | 186° |
| 2026-04-23 13:19 | 59.02177 | -135.31932 | 8984 ft | 122 kts | 186° |
| 2026-04-23 13:19 | 59.01340 | -135.31867 | 8987 ft | 122 kts | 187° |
| 2026-04-23 13:19 | 59.00477 | -135.31805 | 8982 ft | 123 kts | 187° |
| 2026-04-23 13:19 | 58.99630 | -135.31741 | 8983 ft | 123 kts | 187° |
| 2026-04-23 13:20 | 58.98776 | -135.31682 | 8982 ft | 122 kts | 187° |
| 2026-04-23 13:20 | 58.97931 | -135.31616 | 8981 ft | 122 kts | 187° |
| 2026-04-23 13:20 | 58.97080 | -135.31551 | 8980 ft | 122 kts | 187° |
| 2026-04-23 13:20 | 58.96239 | -135.31483 | 8980 ft | 122 kts | 187° |
| 2026-04-23 13:21 | 58.95386 | -135.31421 | 8981 ft | 122 kts | 187° |
| 2026-04-23 13:21 | 58.94543 | -135.31360 | 8981 ft | 122 kts | 187° |
| 2026-04-23 13:21 | 58.93692 | -135.31296 | 8980 ft | 122 kts | 186° |
| 2026-04-23 13:21 | 58.92838 | -135.31229 | 8978 ft | 123 kts | 187° |
| 2026-04-23 13:22 | 58.91984 | -135.31168 | 8975 ft | 123 kts | 187° |
| 2026-04-23 13:22 | 58.91137 | -135.31102 | 8974 ft | 123 kts | 187° |
| 2026-04-23 13:22 | 58.90287 | -135.31041 | 8973 ft | 122 kts | 187° |
| 2026-04-23 13:22 | 58.89433 | -135.30978 | 8971 ft | 122 kts | 187° |
| 2026-04-23 13:23 | 58.88580 | -135.30916 | 8968 ft | 122 kts | 187° |
| 2026-04-23 13:23 | 58.87738 | -135.30853 | 8968 ft | 122 kts | 187° |
| 2026-04-23 13:23 | 58.86894 | -135.30792 | 8967 ft | 121 kts | 187° |
| 2026-04-23 13:23 | 58.86055 | -135.30728 | 8968 ft | 121 kts | 187° |
| 2026-04-23 13:24 | 58.85206 | -135.30669 | 8967 ft | 122 kts | 187° |
| 2026-04-23 13:24 | 58.84362 | -135.30608 | 8966 ft | 122 kts | 187° |
| 2026-04-23 13:24 | 58.83514 | -135.30542 | 8966 ft | 122 kts | 187° |
| 2026-04-23 13:24 | 58.82673 | -135.30482 | 8966 ft | 122 kts | 187° |
| 2026-04-23 13:25 | 58.81814 | -135.30420 | 8965 ft | 122 kts | 187° |
| 2026-04-23 13:25 | 58.80966 | -135.30359 | 8965 ft | 122 kts | 187° |
| 2026-04-23 13:25 | 58.80119 | -135.30299 | 8963 ft | 122 kts | 187° |
| 2026-04-23 13:25 | 58.79280 | -135.30240 | 8962 ft | 122 kts | 186° |
| 2026-04-23 13:26 | 58.78428 | -135.30177 | 8959 ft | 122 kts | 187° |
| 2026-04-23 13:26 | 58.77580 | -135.30118 | 8955 ft | 122 kts | 186° |
| 2026-04-23 13:26 | 58.76736 | -135.30055 | 8950 ft | 122 kts | 186° |
| 2026-04-23 13:26 | 58.75880 | -135.29991 | 8949 ft | 122 kts | 186° |
| 2026-04-23 13:27 | 58.75042 | -135.29930 | 8948 ft | 121 kts | 187° |
| 2026-04-23 13:27 | 58.74196 | -135.29868 | 8950 ft | 121 kts | 186° |
| 2026-04-23 13:27 | 58.73362 | -135.29805 | 8952 ft | 121 kts | 187° |
| 2026-04-23 13:27 | 58.72525 | -135.29744 | 8951 ft | 121 kts | 187° |
| 2026-04-23 13:28 | 58.71680 | -135.29686 | 8950 ft | 121 kts | 187° |
| 2026-04-23 13:28 | 58.70836 | -135.29625 | 8950 ft | 121 kts | 187° |
| 2026-04-23 13:28 | 58.70001 | -135.29565 | 8951 ft | 121 kts | 187° |
| 2026-04-23 13:28 | 58.69148 | -135.29506 | 8952 ft | 122 kts | 186° |
| 2026-04-23 13:29 | 58.68309 | -135.29443 | 8950 ft | 122 kts | 186° |
| 2026-04-23 13:29 | 58.67461 | -135.29381 | 8949 ft | 122 kts | 187° |
| 2026-04-23 13:29 | 58.66592 | -135.29324 | 8952 ft | 129 kts | 188° |
| 2026-04-23 13:29 | 58.65677 | -135.29268 | 8946 ft | 133 kts | 187° |
| 2026-04-23 13:30 | 58.64743 | -135.29204 | 8944 ft | 134 kts | 187° |
| 2026-04-23 13:30 | 58.63821 | -135.29137 | 8943 ft | 134 kts | 186° |
| 2026-04-23 13:30 | 58.62887 | -135.29071 | 8941 ft | 134 kts | 186° |
| 2026-04-23 13:30 | 58.61951 | -135.29005 | 8939 ft | 134 kts | 186° |
| 2026-04-23 13:31 | 58.61013 | -135.28938 | 8938 ft | 134 kts | 186° |
| 2026-04-23 13:31 | 58.60081 | -135.28868 | 8932 ft | 135 kts | 186° |
| 2026-04-23 13:31 | 58.59307 | -135.28770 | 9421 ft | 87 kts | 197° |
| 2026-04-23 13:31 | 58.58563 | -135.28783 | 9085 ft | 143 kts | 190° |
| 2026-04-23 13:32 | 58.57540 | -135.28743 | 8928 ft | 142 kts | 184° |
| 2026-04-23 13:32 | 58.56567 | -135.28645 | 8923 ft | 138 kts | 185° |
| 2026-04-23 13:32 | 58.55615 | -135.28566 | 8919 ft | 136 kts | 185° |
| 2026-04-23 13:32 | 58.54671 | -135.28490 | 8916 ft | 135 kts | 185° |
| 2026-04-23 13:33 | 58.53730 | -135.28420 | 8915 ft | 135 kts | 186° |
| 2026-04-23 13:33 | 58.52790 | -135.28349 | 8915 ft | 135 kts | 186° |
| 2026-04-23 13:33 | 58.51856 | -135.28279 | 8920 ft | 135 kts | 186° |
| 2026-04-23 13:33 | 58.50927 | -135.28212 | 8916 ft | 135 kts | 186° |
| 2026-04-23 13:34 | 58.49981 | -135.28146 | 8910 ft | 135 kts | 186° |
| 2026-04-23 13:34 | 58.49050 | -135.28078 | 8911 ft | 134 kts | 186° |
| 2026-04-23 13:34 | 58.48112 | -135.28011 | 8913 ft | 134 kts | 186° |
| 2026-04-23 13:34 | 58.47169 | -135.27942 | 8916 ft | 134 kts | 186° |
| 2026-04-23 13:35 | 58.46245 | -135.27878 | 8922 ft | 134 kts | 186° |
| 2026-04-23 13:35 | 58.45320 | -135.27815 | 8927 ft | 134 kts | 186° |
| 2026-04-23 13:35 | 58.44390 | -135.27745 | 8930 ft | 135 kts | 186° |
| 2026-04-23 13:35 | 58.43442 | -135.27679 | 8933 ft | 135 kts | 186° |
| 2026-04-23 13:36 | 58.42509 | -135.27611 | 8932 ft | 135 kts | 186° |
| 2026-04-23 13:36 | 58.41564 | -135.27544 | 8929 ft | 135 kts | 186° |
| 2026-04-23 13:36 | 58.40638 | -135.27478 | 8932 ft | 134 kts | 186° |
| 2026-04-23 13:36 | 58.39701 | -135.27416 | 8938 ft | 134 kts | 186° |
| 2026-04-23 13:37 | 58.38781 | -135.27350 | 8941 ft | 134 kts | 185° |
| 2026-04-23 13:37 | 58.37851 | -135.27284 | 8943 ft | 134 kts | 185° |
| 2026-04-23 13:37 | 58.36910 | -135.27220 | 8945 ft | 134 kts | 185° |
| 2026-04-23 13:37 | 58.35980 | -135.27151 | 8946 ft | 134 kts | 185° |
| 2026-04-23 13:38 | 58.35039 | -135.27083 | 8952 ft | 134 kts | 185° |
| 2026-04-23 13:38 | 58.34115 | -135.27014 | 8953 ft | 134 kts | 185° |
| 2026-04-23 13:38 | 58.33186 | -135.26944 | 8958 ft | 134 kts | 186° |
| 2026-04-23 13:38 | 58.32252 | -135.26877 | 8960 ft | 134 kts | 187° |
| 2026-04-23 13:39 | 58.31326 | -135.26816 | 8962 ft | 134 kts | 186° |
| 2026-04-23 13:39 | 58.30392 | -135.26749 | 8963 ft | 134 kts | 186° |
| 2026-04-23 13:39 | 58.29460 | -135.26688 | 8964 ft | 134 kts | 186° |
| 2026-04-23 13:39 | 58.28530 | -135.26623 | 8965 ft | 134 kts | 185° |
| 2026-04-23 13:40 | 58.27600 | -135.26561 | 8968 ft | 134 kts | 185° |
| 2026-04-23 13:40 | 58.26660 | -135.26492 | 8972 ft | 134 kts | 185° |
| 2026-04-23 13:40 | 58.25732 | -135.26430 | 8976 ft | 134 kts | 185° |
| 2026-04-23 13:40 | 58.24808 | -135.26361 | 8981 ft | 135 kts | 185° |
| 2026-04-23 13:41 | 58.23891 | -135.26298 | 8983 ft | 135 kts | 185° |
| 2026-04-23 13:41 | 58.22964 | -135.26231 | 8978 ft | 135 kts | 184° |
| 2026-04-23 13:41 | 58.22028 | -135.26166 | 8977 ft | 135 kts | 185° |
| 2026-04-23 13:41 | 58.21106 | -135.26096 | 8972 ft | 135 kts | 185° |
| 2026-04-23 13:42 | 58.20178 | -135.26031 | 8972 ft | 134 kts | 185° |
| 2026-04-23 13:42 | 58.19246 | -135.25963 | 8962 ft | 134 kts | 185° |
| 2026-04-23 13:42 | 58.18326 | -135.25900 | 8956 ft | 133 kts | 185° |
| 2026-04-23 13:42 | 58.17442 | -135.25351 | 8959 ft | 141 kts | 152° |
| 2026-04-23 13:43 | 58.16629 | -135.24339 | 8956 ft | 142 kts | 148° |
| 2026-04-23 13:43 | 58.15814 | -135.23280 | 8951 ft | 143 kts | 148° |
| 2026-04-23 13:43 | 58.15016 | -135.22238 | 8949 ft | 142 kts | 147° |
| 2026-04-23 13:43 | 58.14209 | -135.21181 | 8950 ft | 142 kts | 147° |
| 2026-04-23 13:44 | 58.13392 | -135.20105 | 8952 ft | 143 kts | 147° |
| 2026-04-23 13:44 | 58.12587 | -135.19051 | 8952 ft | 143 kts | 147° |
| 2026-04-23 13:44 | 58.11767 | -135.17978 | 8946 ft | 143 kts | 147° |
| 2026-04-23 13:44 | 58.10969 | -135.16931 | 8945 ft | 142 kts | 147° |
| 2026-04-23 13:45 | 58.10153 | -135.15860 | 8951 ft | 142 kts | 147° |
| 2026-04-23 13:45 | 58.09340 | -135.14796 | 8956 ft | 142 kts | 147° |
| 2026-04-23 13:45 | 58.08526 | -135.13731 | 8958 ft | 142 kts | 147° |
| 2026-04-23 13:45 | 58.07718 | -135.12671 | 8959 ft | 142 kts | 147° |
| 2026-04-23 13:46 | 58.06908 | -135.11609 | 8958 ft | 142 kts | 147° |
| 2026-04-23 13:46 | 58.06113 | -135.10568 | 8955 ft | 141 kts | 147° |
| 2026-04-23 13:46 | 58.05302 | -135.09505 | 8954 ft | 140 kts | 148° |
| 2026-04-23 13:46 | 58.04503 | -135.08464 | 8954 ft | 140 kts | 147° |
| 2026-04-23 13:47 | 58.03700 | -135.07419 | 8954 ft | 140 kts | 147° |
| 2026-04-23 13:47 | 58.02909 | -135.06389 | 8956 ft | 140 kts | 147° |
| 2026-04-23 13:47 | 58.02102 | -135.05341 | 8957 ft | 140 kts | 146° |
| 2026-04-23 13:47 | 58.01312 | -135.04312 | 8957 ft | 139 kts | 146° |
| 2026-04-23 13:48 | 58.00508 | -135.03262 | 8961 ft | 139 kts | 146° |
| 2026-04-23 13:48 | 57.99713 | -135.02226 | 8965 ft | 139 kts | 146° |
| 2026-04-23 13:48 | 57.98927 | -135.01202 | 8965 ft | 139 kts | 146° |
| 2026-04-23 13:48 | 57.98124 | -135.00159 | 8964 ft | 139 kts | 146° |
| 2026-04-23 13:49 | 57.97338 | -134.99136 | 8964 ft | 139 kts | 146° |
| 2026-04-23 13:49 | 57.96543 | -134.98103 | 8962 ft | 138 kts | 146° |
| 2026-04-23 13:49 | 57.95745 | -134.97064 | 8962 ft | 138 kts | 146° |
| 2026-04-23 13:49 | 57.94960 | -134.96046 | 8961 ft | 138 kts | 147° |
| 2026-04-23 13:50 | 57.94172 | -134.95026 | 8963 ft | 139 kts | 146° |
| 2026-04-23 13:50 | 57.93370 | -134.93990 | 8963 ft | 139 kts | 146° |
| 2026-04-23 13:50 | 57.92576 | -134.92963 | 8962 ft | 140 kts | 146° |
| 2026-04-23 13:50 | 57.91766 | -134.91914 | 8965 ft | 141 kts | 146° |
| 2026-04-23 13:51 | 57.90957 | -134.90865 | 8964 ft | 141 kts | 146° |
| 2026-04-23 13:51 | 57.90151 | -134.89821 | 8967 ft | 142 kts | 146° |
| 2026-04-23 13:51 | 57.89327 | -134.88760 | 8963 ft | 143 kts | 146° |
| 2026-04-23 13:51 | 57.88512 | -134.87706 | 8963 ft | 142 kts | 146° |
| 2026-04-23 13:52 | 57.87704 | -134.86662 | 8959 ft | 142 kts | 146° |
| 2026-04-23 13:52 | 57.86883 | -134.85600 | 8957 ft | 141 kts | 146° |
| 2026-04-23 13:52 | 57.86084 | -134.84569 | 8956 ft | 142 kts | 146° |
| 2026-04-23 13:52 | 57.85267 | -134.83516 | 8959 ft | 142 kts | 146° |
| 2026-04-23 13:53 | 57.84460 | -134.82478 | 8962 ft | 142 kts | 147° |
| 2026-04-23 13:53 | 57.83633 | -134.81416 | 8964 ft | 143 kts | 146° |
| 2026-04-23 13:53 | 57.82812 | -134.80362 | 8963 ft | 144 kts | 146° |
| 2026-04-23 13:53 | 57.81996 | -134.79312 | 8965 ft | 144 kts | 146° |
| 2026-04-23 13:54 | 57.81165 | -134.78245 | 8966 ft | 144 kts | 146° |
| 2026-04-23 13:54 | 57.80409 | -134.77274 | 9283 ft | 112 kts | 149° |
| 2026-04-23 13:54 | 57.79669 | -134.76343 | 9056 ft | 149 kts | 146° |
| 2026-04-23 13:54 | 57.78822 | -134.75253 | 9007 ft | 148 kts | 145° |
| 2026-04-23 13:55 | 57.77976 | -134.74158 | 9004 ft | 145 kts | 145° |
| 2026-04-23 13:55 | 57.77153 | -134.73099 | 9006 ft | 145 kts | 146° |
| 2026-04-23 13:55 | 57.76321 | -134.72031 | 9008 ft | 144 kts | 146° |
| 2026-04-23 13:55 | 57.75489 | -134.70966 | 9011 ft | 145 kts | 146° |
| 2026-04-23 13:56 | 57.74658 | -134.69900 | 9009 ft | 145 kts | 146° |
| 2026-04-23 13:56 | 57.73830 | -134.68843 | 9009 ft | 146 kts | 146° |
| 2026-04-23 13:56 | 57.72990 | -134.67772 | 9008 ft | 146 kts | 146° |
| 2026-04-23 13:56 | 57.72148 | -134.66695 | 9008 ft | 146 kts | 146° |
| 2026-04-23 13:57 | 57.71306 | -134.65619 | 9007 ft | 147 kts | 146° |
| 2026-04-23 13:57 | 57.70467 | -134.64546 | 9007 ft | 148 kts | 146° |
| 2026-04-23 13:57 | 57.69618 | -134.63464 | 9004 ft | 148 kts | 146° |
| 2026-04-23 13:57 | 57.68764 | -134.62375 | 9003 ft | 148 kts | 146° |
| 2026-04-23 13:58 | 57.67918 | -134.61299 | 9002 ft | 148 kts | 146° |
| 2026-04-23 13:58 | 57.67068 | -134.60217 | 9003 ft | 148 kts | 146° |
| 2026-04-23 13:58 | 57.66221 | -134.59142 | 9002 ft | 147 kts | 146° |
| 2026-04-23 13:58 | 57.65374 | -134.58064 | 9002 ft | 148 kts | 146° |
| 2026-04-23 13:59 | 57.64529 | -134.56990 | 9001 ft | 148 kts | 146° |
| 2026-04-23 13:59 | 57.63681 | -134.55913 | 9001 ft | 148 kts | 146° |
| 2026-04-23 13:59 | 57.62834 | -134.54834 | 9003 ft | 147 kts | 146° |
| 2026-04-23 13:59 | 57.61978 | -134.53749 | 9006 ft | 148 kts | 146° |
| 2026-04-23 14:00 | 57.61131 | -134.52678 | 9005 ft | 148 kts | 146° |
| 2026-04-23 14:00 | 57.60277 | -134.51601 | 9006 ft | 150 kts | 146° |
| 2026-04-23 14:00 | 57.59405 | -134.50499 | 9006 ft | 150 kts | 145° |
| 2026-04-23 14:00 | 57.58540 | -134.49399 | 9006 ft | 151 kts | 145° |
| 2026-04-23 14:01 | 57.57681 | -134.48312 | 9007 ft | 151 kts | 145° |
| 2026-04-23 14:01 | 57.56812 | -134.47214 | 9006 ft | 151 kts | 146° |
| 2026-04-23 14:01 | 57.55936 | -134.46101 | 9007 ft | 151 kts | 146° |
| 2026-04-23 14:01 | 57.55074 | -134.45012 | 9005 ft | 151 kts | 146° |
| 2026-04-23 14:02 | 57.54203 | -134.43915 | 9004 ft | 151 kts | 146° |
| 2026-04-23 14:02 | 57.53330 | -134.42818 | 9003 ft | 152 kts | 146° |
| 2026-04-23 14:02 | 57.52457 | -134.41719 | 9001 ft | 152 kts | 146° |
| 2026-04-23 14:02 | 57.51584 | -134.40622 | 9002 ft | 153 kts | 145° |
| 2026-04-23 14:03 | 57.50697 | -134.39502 | 9000 ft | 153 kts | 145° |
| 2026-04-23 14:03 | 57.49819 | -134.38397 | 9001 ft | 153 kts | 146° |
| 2026-04-23 14:03 | 57.48937 | -134.37291 | 9002 ft | 154 kts | 145° |
| 2026-04-23 14:03 | 57.48049 | -134.36174 | 9000 ft | 154 kts | 145° |
| 2026-04-23 14:04 | 57.47161 | -134.35057 | 9000 ft | 154 kts | 145° |
| 2026-04-23 14:04 | 57.46275 | -134.33945 | 8996 ft | 154 kts | 146° |
| 2026-04-23 14:04 | 57.45394 | -134.32840 | 8995 ft | 154 kts | 145° |
| 2026-04-23 14:04 | 57.44510 | -134.31729 | 8993 ft | 154 kts | 146° |
| 2026-04-23 14:05 | 57.43622 | -134.30617 | 8989 ft | 154 kts | 146° |
| 2026-04-23 14:05 | 57.42740 | -134.29511 | 8988 ft | 154 kts | 146° |
| 2026-04-23 14:05 | 57.41853 | -134.28403 | 8984 ft | 154 kts | 146° |
| 2026-04-23 14:05 | 57.40966 | -134.27293 | 8982 ft | 153 kts | 146° |
| 2026-04-23 14:06 | 57.40086 | -134.26192 | 8982 ft | 153 kts | 146° |
| 2026-04-23 14:06 | 57.39205 | -134.25095 | 8983 ft | 154 kts | 146° |
| 2026-04-23 14:06 | 57.38316 | -134.23987 | 8986 ft | 154 kts | 146° |
| 2026-04-23 14:06 | 57.37423 | -134.22871 | 8987 ft | 154 kts | 145° |
| 2026-04-23 14:07 | 57.36536 | -134.21765 | 8987 ft | 154 kts | 146° |
| 2026-04-23 14:07 | 57.34745 | -134.19536 | 8989 ft | 156 kts | 145° |
| 2026-04-23 14:07 | 57.33852 | -134.18422 | 8989 ft | 156 kts | 145° |
| 2026-04-23 14:08 | 57.32950 | -134.17302 | 8991 ft | 156 kts | 145° |
| 2026-04-23 14:08 | 57.32053 | -134.16182 | 8991 ft | 156 kts | 146° |
| 2026-04-23 14:08 | 57.31148 | -134.15057 | 8993 ft | 156 kts | 146° |
| 2026-04-23 14:08 | 57.30247 | -134.13937 | 8995 ft | 156 kts | 146° |
| 2026-04-23 14:09 | 57.29340 | -134.12816 | 8996 ft | 157 kts | 146° |
| 2026-04-23 14:09 | 57.28443 | -134.11705 | 9000 ft | 157 kts | 145° |
| 2026-04-23 14:09 | 57.27538 | -134.10579 | 9001 ft | 157 kts | 146° |
| 2026-04-23 14:09 | 57.26638 | -134.09464 | 9002 ft | 156 kts | 146° |
| 2026-04-23 14:10 | 57.25724 | -134.08336 | 9004 ft | 157 kts | 145° |
| 2026-04-23 14:10 | 57.24830 | -134.07231 | 9005 ft | 157 kts | 145° |
| 2026-04-23 14:10 | 57.23911 | -134.06094 | 9007 ft | 158 kts | 145° |
| 2026-04-23 14:10 | 57.23008 | -134.04979 | 9007 ft | 158 kts | 145° |
| 2026-04-23 14:11 | 57.22095 | -134.03850 | 9008 ft | 159 kts | 145° |
| 2026-04-23 14:11 | 57.21172 | -134.02708 | 9009 ft | 159 kts | 145° |
| 2026-04-23 14:11 | 57.20246 | -134.01570 | 9011 ft | 160 kts | 145° |
| 2026-04-23 14:11 | 57.19328 | -134.00436 | 9016 ft | 160 kts | 145° |
| 2026-04-23 14:12 | 57.18402 | -133.99295 | 9015 ft | 160 kts | 145° |
| 2026-04-23 14:12 | 57.17475 | -133.98152 | 9018 ft | 160 kts | 145° |
| 2026-04-23 14:12 | 57.16557 | -133.97025 | 9022 ft | 160 kts | 144° |
| 2026-04-23 14:12 | 57.15633 | -133.95888 | 9020 ft | 160 kts | 145° |
| 2026-04-23 14:13 | 57.14710 | -133.94753 | 9018 ft | 159 kts | 144° |
| 2026-04-23 14:13 | 57.13792 | -133.93625 | 9019 ft | 160 kts | 145° |
| 2026-04-23 14:13 | 57.12863 | -133.92485 | 9021 ft | 160 kts | 144° |
| 2026-04-23 14:13 | 57.11932 | -133.91342 | 9021 ft | 161 kts | 144° |
| 2026-04-23 14:14 | 57.11011 | -133.90213 | 9011 ft | 160 kts | 144° |
| 2026-04-23 14:14 | 57.10077 | -133.89066 | 9008 ft | 160 kts | 144° |
| 2026-04-23 14:14 | 57.09163 | -133.87950 | 9004 ft | 160 kts | 144° |
| 2026-04-23 14:14 | 57.08218 | -133.86795 | 8999 ft | 161 kts | 144° |
| 2026-04-23 14:15 | 57.07301 | -133.85669 | 8994 ft | 160 kts | 144° |
| 2026-04-23 14:15 | 57.06364 | -133.84525 | 8992 ft | 160 kts | 144° |
| 2026-04-23 14:15 | 57.05440 | -133.83397 | 8990 ft | 160 kts | 144° |
| 2026-04-23 14:15 | 57.04508 | -133.82259 | 8991 ft | 161 kts | 144° |
| 2026-04-23 14:16 | 57.03566 | -133.81105 | 8988 ft | 162 kts | 145° |
| 2026-04-23 14:16 | 57.02636 | -133.79976 | 8982 ft | 162 kts | 144° |
| 2026-04-23 14:16 | 57.01691 | -133.78825 | 8975 ft | 161 kts | 144° |
| 2026-04-23 14:16 | 57.00767 | -133.77699 | 8972 ft | 160 kts | 144° |
| 2026-04-23 14:17 | 56.99838 | -133.76570 | 8969 ft | 160 kts | 144° |
| 2026-04-23 14:17 | 56.98909 | -133.75439 | 8975 ft | 160 kts | 144° |
| 2026-04-23 14:17 | 56.97990 | -133.74321 | 8981 ft | 160 kts | 144° |
| 2026-04-23 14:17 | 56.97062 | -133.73195 | 8985 ft | 160 kts | 144° |
| 2026-04-23 14:18 | 56.96137 | -133.72070 | 8980 ft | 160 kts | 144° |
| 2026-04-23 14:18 | 56.95208 | -133.70943 | 8992 ft | 160 kts | 144° |
| 2026-04-23 14:18 | 56.94279 | -133.69817 | 8989 ft | 160 kts | 144° |
| 2026-04-23 14:18 | 56.93359 | -133.68703 | 8994 ft | 160 kts | 144° |
| 2026-04-23 14:19 | 56.92427 | -133.67572 | 8992 ft | 160 kts | 144° |
| 2026-04-23 14:19 | 56.91497 | -133.66449 | 8991 ft | 160 kts | 144° |
| 2026-04-23 14:19 | 56.90570 | -133.65328 | 8988 ft | 159 kts | 144° |
| 2026-04-23 14:19 | 56.89647 | -133.64210 | 8981 ft | 159 kts | 144° |
| 2026-04-23 14:20 | 56.88730 | -133.63101 | 8976 ft | 158 kts | 144° |
| 2026-04-23 14:20 | 56.87811 | -133.61992 | 8975 ft | 158 kts | 144° |
| 2026-04-23 14:20 | 56.86887 | -133.60878 | 8972 ft | 158 kts | 144° |
| 2026-04-23 14:20 | 56.85981 | -133.59786 | 8964 ft | 158 kts | 143° |
| 2026-04-23 14:21 | 56.85060 | -133.58676 | 8960 ft | 158 kts | 143° |
| 2026-04-23 14:21 | 56.84141 | -133.57568 | 8956 ft | 158 kts | 143° |
| 2026-04-23 14:21 | 56.83227 | -133.56465 | 8954 ft | 158 kts | 143° |
| 2026-04-23 14:21 | 56.82314 | -133.55368 | 8952 ft | 158 kts | 144° |
| 2026-04-23 14:22 | 56.81397 | -133.54268 | 8951 ft | 158 kts | 143° |
| 2026-04-23 14:22 | 56.80479 | -133.53165 | 8946 ft | 158 kts | 143° |
| 2026-04-23 14:22 | 56.79561 | -133.52060 | 8942 ft | 157 kts | 143° |
| 2026-04-23 14:22 | 56.78647 | -133.50963 | 8938 ft | 158 kts | 143° |
| 2026-04-23 14:23 | 56.77735 | -133.49870 | 8936 ft | 158 kts | 143° |
| 2026-04-23 14:23 | 56.76813 | -133.48767 | 8935 ft | 157 kts | 143° |
| 2026-04-23 14:23 | 56.75907 | -133.47678 | 8937 ft | 157 kts | 143° |
| 2026-04-23 14:23 | 56.74997 | -133.46587 | 8941 ft | 157 kts | 143° |
| 2026-04-23 14:24 | 56.74078 | -133.45489 | 8943 ft | 157 kts | 143° |
| 2026-04-23 14:24 | 56.73171 | -133.44405 | 8915 ft | 160 kts | 143° |
| 2026-04-23 14:24 | 56.72234 | -133.43282 | 8863 ft | 161 kts | 143° |
| 2026-04-23 14:24 | 56.71289 | -133.42151 | 8812 ft | 162 kts | 143° |
| 2026-04-23 14:25 | 56.70350 | -133.41028 | 8759 ft | 162 kts | 143° |
| 2026-04-23 14:25 | 56.69413 | -133.39909 | 8696 ft | 161 kts | 143° |
| 2026-04-23 14:25 | 56.68475 | -133.38785 | 8643 ft | 160 kts | 143° |
| 2026-04-23 14:25 | 56.67538 | -133.37665 | 8591 ft | 160 kts | 143° |
| 2026-04-23 14:26 | 56.66614 | -133.36565 | 8540 ft | 160 kts | 143° |
| 2026-04-23 14:26 | 56.65684 | -133.35460 | 8488 ft | 159 kts | 143° |
| 2026-04-23 14:26 | 56.64759 | -133.34358 | 8434 ft | 159 kts | 143° |
| 2026-04-23 14:26 | 56.63838 | -133.33260 | 8379 ft | 159 kts | 144° |
| 2026-04-23 14:27 | 56.62907 | -133.32153 | 8326 ft | 159 kts | 144° |
| 2026-04-23 14:27 | 56.61984 | -133.31061 | 8274 ft | 160 kts | 143° |
| 2026-04-23 14:27 | 56.61057 | -133.29958 | 8221 ft | 160 kts | 144° |
| 2026-04-23 14:27 | 56.60123 | -133.28850 | 8164 ft | 160 kts | 144° |
| 2026-04-23 14:28 | 56.59187 | -133.27739 | 8106 ft | 160 kts | 144° |
| 2026-04-23 14:28 | 56.58250 | -133.26630 | 8050 ft | 161 kts | 144° |
| 2026-04-23 14:28 | 56.57304 | -133.25510 | 7994 ft | 161 kts | 144° |
| 2026-04-23 14:28 | 56.56372 | -133.24409 | 7937 ft | 161 kts | 144° |
| 2026-04-23 14:29 | 56.55425 | -133.23288 | 7882 ft | 161 kts | 144° |
| 2026-04-23 14:29 | 56.54486 | -133.22180 | 7826 ft | 161 kts | 144° |
| 2026-04-23 14:29 | 56.53543 | -133.21066 | 7772 ft | 161 kts | 144° |
| 2026-04-23 14:29 | 56.52615 | -133.19972 | 7718 ft | 161 kts | 144° |
| 2026-04-23 14:30 | 56.51666 | -133.18851 | 7639 ft | 164 kts | 144° |
| 2026-04-23 14:30 | 56.50710 | -133.17725 | 7543 ft | 165 kts | 144° |
| 2026-04-23 14:30 | 56.49748 | -133.16586 | 7397 ft | 164 kts | 143° |
| 2026-04-23 14:30 | 56.48794 | -133.15454 | 7231 ft | 163 kts | 143° |
| 2026-04-23 14:31 | 56.47853 | -133.14334 | 7071 ft | 162 kts | 143° |
| 2026-04-23 14:31 | 56.46910 | -133.13220 | 6912 ft | 162 kts | 143° |
| 2026-04-23 14:31 | 56.45974 | -133.12120 | 6747 ft | 162 kts | 143° |
| 2026-04-23 14:31 | 56.45029 | -133.11005 | 6581 ft | 162 kts | 143° |
| 2026-04-23 14:32 | 56.44087 | -133.09895 | 6418 ft | 162 kts | 143° |
| 2026-04-23 14:32 | 56.43135 | -133.08780 | 6256 ft | 161 kts | 143° |
| 2026-04-23 14:32 | 56.42194 | -133.07680 | 6099 ft | 161 kts | 143° |
| 2026-04-23 14:32 | 56.41259 | -133.06580 | 5945 ft | 160 kts | 143° |
| 2026-04-23 14:33 | 56.40335 | -133.05496 | 5791 ft | 158 kts | 143° |
| 2026-04-23 14:33 | 56.39414 | -133.04421 | 5641 ft | 157 kts | 143° |
| 2026-04-23 14:33 | 56.38512 | -133.03363 | 5495 ft | 155 kts | 143° |
| 2026-04-23 14:33 | 56.37613 | -133.02313 | 5338 ft | 154 kts | 142° |
| 2026-04-23 14:34 | 56.36720 | -133.01266 | 5161 ft | 152 kts | 142° |
| 2026-04-23 14:34 | 56.35837 | -133.00232 | 4981 ft | 150 kts | 141° |
| 2026-04-23 14:34 | 56.34967 | -132.99214 | 4799 ft | 149 kts | 141° |
| 2026-04-23 14:34 | 56.34110 | -132.98209 | 4623 ft | 148 kts | 141° |
| 2026-04-23 14:35 | 56.33250 | -132.97203 | 4507 ft | 141 kts | 142° |
| 2026-04-23 14:35 | 56.32451 | -132.96275 | 4495 ft | 133 kts | 142° |
| 2026-04-23 14:35 | 56.31689 | -132.95392 | 4492 ft | 130 kts | 142° |
| 2026-04-23 14:35 | 56.30932 | -132.94516 | 4490 ft | 129 kts | 142° |
| 2026-04-23 14:36 | 56.30182 | -132.93646 | 4489 ft | 128 kts | 142° |
| 2026-04-23 14:36 | 56.29427 | -132.92767 | 4507 ft | 131 kts | 144° |
| 2026-04-23 14:36 | 56.28640 | -132.91859 | 4487 ft | 137 kts | 143° |
| 2026-04-23 14:36 | 56.27831 | -132.90930 | 4487 ft | 137 kts | 143° |
| 2026-04-23 14:37 | 56.27045 | -132.90021 | 4489 ft | 135 kts | 142° |
| 2026-04-23 14:37 | 56.26255 | -132.89104 | 4489 ft | 134 kts | 142° |
| 2026-04-23 14:37 | 56.25471 | -132.88193 | 4490 ft | 133 kts | 142° |
| 2026-04-23 14:37 | 56.24697 | -132.87295 | 4491 ft | 133 kts | 142° |
| 2026-04-23 14:38 | 56.23928 | -132.86401 | 4491 ft | 133 kts | 142° |
| 2026-04-23 14:38 | 56.23155 | -132.85507 | 4491 ft | 133 kts | 143° |
| 2026-04-23 14:38 | 56.22377 | -132.84607 | 4491 ft | 132 kts | 142° |
| 2026-04-23 14:38 | 56.21612 | -132.83720 | 4491 ft | 132 kts | 142° |
| 2026-04-23 14:39 | 56.20838 | -132.82826 | 4490 ft | 132 kts | 142° |
| 2026-04-23 14:39 | 56.20060 | -132.81928 | 4490 ft | 132 kts | 142° |
| 2026-04-23 14:39 | 56.19284 | -132.81030 | 4490 ft | 132 kts | 142° |
| 2026-04-23 14:39 | 56.18522 | -132.80150 | 4493 ft | 132 kts | 142° |
| 2026-04-23 14:40 | 56.17750 | -132.79259 | 4493 ft | 133 kts | 142° |
| 2026-04-23 14:40 | 56.16973 | -132.78361 | 4492 ft | 133 kts | 142° |
| 2026-04-23 14:40 | 56.16187 | -132.77454 | 4491 ft | 134 kts | 142° |
| 2026-04-23 14:40 | 56.15407 | -132.76556 | 4492 ft | 134 kts | 142° |
| 2026-04-23 14:41 | 56.14621 | -132.75652 | 4492 ft | 134 kts | 142° |
| 2026-04-23 14:41 | 56.13835 | -132.74745 | 4492 ft | 133 kts | 142° |
| 2026-04-23 14:41 | 56.13062 | -132.73856 | 4494 ft | 132 kts | 142° |
| 2026-04-23 14:41 | 56.12287 | -132.72965 | 4493 ft | 132 kts | 142° |
| 2026-04-23 14:42 | 56.11518 | -132.72078 | 4493 ft | 132 kts | 142° |
| 2026-04-23 14:42 | 56.10742 | -132.71187 | 4493 ft | 132 kts | 142° |
| 2026-04-23 14:42 | 56.09970 | -132.70299 | 4493 ft | 132 kts | 142° |
| 2026-04-23 14:42 | 56.09203 | -132.69420 | 4492 ft | 132 kts | 142° |
| 2026-04-23 14:43 | 56.08432 | -132.68533 | 4495 ft | 131 kts | 142° |
| 2026-04-23 14:43 | 56.07666 | -132.67654 | 4498 ft | 132 kts | 142° |
| 2026-04-23 14:43 | 56.06894 | -132.66768 | 4501 ft | 132 kts | 143° |
| 2026-04-23 14:43 | 56.06110 | -132.65871 | 4502 ft | 133 kts | 142° |
| 2026-04-23 14:44 | 56.05336 | -132.64984 | 4501 ft | 133 kts | 142° |
| 2026-04-23 14:44 | 56.04556 | -132.64092 | 4501 ft | 134 kts | 143° |
| 2026-04-23 14:44 | 56.03766 | -132.63187 | 4500 ft | 134 kts | 142° |
| 2026-04-23 14:44 | 56.02980 | -132.62291 | 4497 ft | 135 kts | 142° |
| 2026-04-23 14:45 | 56.02183 | -132.61380 | 4496 ft | 136 kts | 142° |
| 2026-04-23 14:45 | 56.01391 | -132.60475 | 4491 ft | 136 kts | 142° |
| 2026-04-23 14:45 | 56.00596 | -132.59567 | 4486 ft | 136 kts | 142° |
| 2026-04-23 14:45 | 55.99808 | -132.58667 | 4514 ft | 134 kts | 142° |
| 2026-04-23 14:46 | 55.99019 | -132.57767 | 4544 ft | 133 kts | 142° |
| 2026-04-23 14:46 | 55.98243 | -132.56882 | 4572 ft | 133 kts | 142° |
| 2026-04-23 14:46 | 55.97465 | -132.55994 | 4597 ft | 132 kts | 142° |
| 2026-04-23 14:46 | 55.96685 | -132.55104 | 4605 ft | 134 kts | 142° |
| 2026-04-23 14:47 | 55.95893 | -132.54205 | 4604 ft | 135 kts | 142° |
| 2026-04-23 14:47 | 55.95095 | -132.53297 | 4605 ft | 136 kts | 142° |
| 2026-04-23 14:47 | 55.94304 | -132.52396 | 4607 ft | 137 kts | 142° |
| 2026-04-23 14:47 | 55.93499 | -132.51482 | 4609 ft | 137 kts | 142° |
| 2026-04-23 14:48 | 55.92695 | -132.50566 | 4610 ft | 138 kts | 142° |
| 2026-04-23 14:48 | 55.91879 | -132.49640 | 4608 ft | 137 kts | 142° |
| 2026-04-23 14:48 | 55.91075 | -132.48726 | 4603 ft | 137 kts | 142° |
| 2026-04-23 14:48 | 55.90281 | -132.47826 | 4603 ft | 135 kts | 141° |
| 2026-04-23 14:49 | 55.89497 | -132.46933 | 4597 ft | 134 kts | 142° |
| 2026-04-23 14:49 | 55.88711 | -132.46043 | 4596 ft | 132 kts | 141° |
| 2026-04-23 14:49 | 55.87940 | -132.45169 | 4598 ft | 132 kts | 142° |
| 2026-04-23 14:49 | 55.87164 | -132.44290 | 4599 ft | 132 kts | 141° |
| 2026-04-23 14:50 | 55.86388 | -132.43410 | 4597 ft | 133 kts | 141° |
| 2026-04-23 14:50 | 55.85603 | -132.42522 | 4596 ft | 133 kts | 142° |
| 2026-04-23 14:50 | 55.84823 | -132.41640 | 4596 ft | 134 kts | 142° |
| 2026-04-23 14:50 | 55.84037 | -132.40750 | 4596 ft | 134 kts | 142° |
| 2026-04-23 14:51 | 55.83257 | -132.39868 | 4595 ft | 134 kts | 142° |
| 2026-04-23 14:51 | 55.82468 | -132.38977 | 4594 ft | 134 kts | 142° |
| 2026-04-23 14:51 | 55.81676 | -132.38086 | 4594 ft | 134 kts | 142° |
| 2026-04-23 14:51 | 55.80883 | -132.37190 | 4595 ft | 134 kts | 142° |
| 2026-04-23 14:52 | 55.80096 | -132.36305 | 4596 ft | 134 kts | 141° |
| 2026-04-23 14:52 | 55.79313 | -132.35423 | 4597 ft | 134 kts | 141° |
| 2026-04-23 14:52 | 55.78533 | -132.34543 | 4597 ft | 134 kts | 142° |
| 2026-04-23 14:52 | 55.77743 | -132.33653 | 4597 ft | 133 kts | 142° |
| 2026-04-23 14:53 | 55.76957 | -132.32768 | 4599 ft | 134 kts | 142° |
| 2026-04-23 14:53 | 55.76172 | -132.31883 | 4601 ft | 134 kts | 142° |
| 2026-04-23 14:53 | 55.75393 | -132.31006 | 4603 ft | 133 kts | 142° |
| 2026-04-23 14:53 | 55.74609 | -132.30125 | 4605 ft | 134 kts | 142° |
| 2026-04-23 14:54 | 55.73817 | -132.29236 | 4606 ft | 134 kts | 143° |
| 2026-04-23 14:54 | 55.73032 | -132.28355 | 4608 ft | 135 kts | 143° |
| 2026-04-23 14:54 | 55.72240 | -132.27469 | 4608 ft | 135 kts | 143° |
| 2026-04-23 14:54 | 55.71443 | -132.26584 | 4607 ft | 136 kts | 143° |
| 2026-04-23 14:55 | 55.70640 | -132.25688 | 4608 ft | 136 kts | 143° |
| 2026-04-23 14:55 | 55.69844 | -132.24805 | 4607 ft | 136 kts | 142° |
| 2026-04-23 14:55 | 55.69045 | -132.23912 | 4604 ft | 136 kts | 142° |
| 2026-04-23 14:55 | 55.68245 | -132.23016 | 4601 ft | 136 kts | 142° |
| 2026-04-23 14:56 | 55.67440 | -132.22116 | 4596 ft | 136 kts | 142° |
| 2026-04-23 14:56 | 55.66643 | -132.21225 | 4590 ft | 136 kts | 142° |
| 2026-04-23 14:56 | 55.65843 | -132.20332 | 4584 ft | 135 kts | 142° |
| 2026-04-23 14:56 | 55.65058 | -132.19455 | 4580 ft | 135 kts | 142° |
| 2026-04-23 14:57 | 55.64258 | -132.18559 | 4575 ft | 135 kts | 142° |
| 2026-04-23 14:57 | 55.63456 | -132.17662 | 4579 ft | 135 kts | 142° |
| 2026-04-23 14:57 | 55.62735 | -132.16611 | 4582 ft | 135 kts | 130° |
| 2026-04-23 14:57 | 55.62046 | -132.15520 | 4582 ft | 135 kts | 130° |
| 2026-04-23 14:58 | 55.61345 | -132.14406 | 4584 ft | 135 kts | 129° |
| 2026-04-23 14:58 | 55.60652 | -132.13304 | 4583 ft | 135 kts | 129° |
| 2026-04-23 14:58 | 55.59953 | -132.12192 | 4583 ft | 135 kts | 130° |
| 2026-04-23 14:58 | 55.59250 | -132.11076 | 4582 ft | 135 kts | 129° |
| 2026-04-23 14:59 | 55.58556 | -132.09967 | 4582 ft | 135 kts | 129° |
| 2026-04-23 14:59 | 55.57850 | -132.08839 | 4533 ft | 138 kts | 130° |
| 2026-04-23 14:59 | 55.57133 | -132.07697 | 4467 ft | 140 kts | 129° |
| 2026-04-23 14:59 | 55.56411 | -132.06554 | 4408 ft | 140 kts | 129° |
| 2026-04-23 15:00 | 55.55684 | -132.05405 | 4385 ft | 140 kts | 130° |
| 2026-04-23 15:00 | 55.54956 | -132.04257 | 4302 ft | 140 kts | 129° |
| 2026-04-23 15:00 | 55.54236 | -132.03117 | 4245 ft | 138 kts | 130° |
| 2026-04-23 15:00 | 55.53523 | -132.01993 | 4174 ft | 137 kts | 130° |
| 2026-04-23 15:01 | 55.52809 | -132.00864 | 4112 ft | 136 kts | 130° |
| 2026-04-23 15:01 | 55.52112 | -131.99771 | 4111 ft | 133 kts | 130° |
| 2026-04-23 15:01 | 55.51679 | -131.98463 | 4122 ft | 116 kts | 84° |
| 2026-04-23 15:01 | 55.51858 | -131.97288 | 4123 ft | 90 kts | 32° |
| 2026-04-23 15:02 | 55.52352 | -131.96950 | 4122 ft | 74 kts | 344° |
| 2026-04-23 15:02 | 55.52701 | -131.97594 | 4121 ft | 83 kts | 295° |
| 2026-04-23 15:02 | 55.52813 | -131.98616 | 4109 ft | 85 kts | 292° |
| 2026-04-23 15:02 | 55.52615 | -131.99641 | 4215 ft | 102 kts | 234° |
| 2026-04-23 15:03 | 55.51924 | -132.00038 | 4409 ft | 109 kts | 190° |
| 2026-04-23 15:03 | 55.51199 | -131.99773 | 4617 ft | 111 kts | 158° |
| 2026-04-23 15:03 | 55.50443 | -131.99059 | 4440 ft | 140 kts | 144° |
| 2026-04-23 15:03 | 55.49656 | -131.98004 | 4251 ft | 143 kts | 132° |
| 2026-04-23 15:04 | 55.48915 | -131.96840 | 4092 ft | 139 kts | 127° |
| 2026-04-23 15:04 | 55.48393 | -131.95570 | 4174 ft | 116 kts | 107° |
| 2026-04-23 15:04 | 55.47983 | -131.94418 | 4251 ft | 108 kts | 110° |
| 2026-04-23 15:04 | 55.47541 | -131.93379 | 4330 ft | 103 kts | 112° |
| 2026-04-23 15:05 | 55.47124 | -131.92358 | 4381 ft | 105 kts | 110° |
| 2026-04-23 15:05 | 55.46667 | -131.91191 | 4045 ft | 134 kts | 110° |
| 2026-04-23 15:05 | 55.46163 | -131.89769 | 3701 ft | 127 kts | 109° |
| 2026-04-23 15:05 | 55.45674 | -131.88602 | 3661 ft | 111 kts | 117° |
| 2026-04-23 15:06 | 55.45168 | -131.87578 | 3490 ft | 119 kts | 126° |
| 2026-04-23 15:06 | 55.44500 | -131.86409 | 2792 ft | 151 kts | 124° |
| 2026-04-23 15:06 | 55.43801 | -131.85091 | 2319 ft | 142 kts | 126° |
| 2026-04-23 15:06 | 55.43131 | -131.83968 | 2025 ft | 123 kts | 126° |
| 2026-04-23 15:07 | 55.42551 | -131.83101 | 2010 ft | 98 kts | 130° |
| 2026-04-23 15:07 | 55.42063 | -131.82379 | 2028 ft | 89 kts | 129° |
| 2026-04-23 15:07 | 55.41581 | -131.81653 | 1998 ft | 91 kts | 127° |
| 2026-04-23 15:07 | 55.41113 | -131.80905 | 1936 ft | 93 kts | 123° |
| 2026-04-23 15:08 | 55.40637 | -131.80122 | 1856 ft | 96 kts | 126° |
| 2026-04-23 15:08 | 55.40136 | -131.79265 | 1621 ft | 105 kts | 120° |
| 2026-04-23 15:08 | 55.39610 | -131.78311 | 1411 ft | 110 kts | 124° |
| 2026-04-23 15:09 | 55.38521 | -131.76456 | 961 ft | 110 kts | 126° |
| 2026-04-23 15:09 | 55.37963 | -131.75510 | 672 ft | 109 kts | 127° |
| 2026-04-23 15:09 | 55.37447 | -131.74602 | 445 ft | 103 kts | 127° |
| 2026-04-23 15:09 | 55.36961 | -131.73776 | 323 ft | 88 kts | 130° |
| 2026-04-23 15:10 | 55.36546 | -131.73090 | 208 ft | 74 kts | 127° |
| 2026-04-23 15:10 | 55.36219 | -131.72520 | 132 ft | 57 kts | 129° |
| 2026-04-23 15:10 | 55.35988 | -131.72159 | 111 ft | 31 kts | 128° |
| 2026-04-23 15:10 | 55.35878 | -131.71983 | 93 ft | 16 kts | 126° |
| 2026-04-23 15:11 | 55.35812 | -131.71803 | 89 ft | 18 kts | 129° |
| 2026-04-23 15:11 | 55.35686 | -131.71632 | 112 ft | 31 kts | 119° |
| 2026-04-23 15:11 | 55.35529 | -131.71330 | 118 ft | 34 kts | 126° |
| 2026-04-23 15:11 | 55.35346 | -131.71007 | 119 ft | 36 kts | 129° |
| 2026-04-23 15:12 | 55.35179 | -131.70747 | 114 ft | 26 kts | 135° |
| 2026-04-23 15:12 | 55.35080 | -131.70579 | 92 ft | 10 kts | 132° |
| 2026-04-23 15:12 | 55.35008 | -131.70448 | 100 ft | 16 kts | 128° |
| 2026-04-23 15:12 | 55.34901 | -131.70267 | 117 ft | 28 kts | 122° |
| 2026-04-23 15:13 | 55.34872 | -131.70030 | 140 ft | 28 kts | 345° |
| 2026-04-23 15:13 | 55.35081 | -131.70290 | 106 ft | 53 kts | 303° |
| 2026-04-23 15:13 | 55.35308 | -131.70668 | 133 ft | 36 kts | 305° |
| 2026-04-23 15:13 | 55.35474 | -131.70872 | 115 ft | 25 kts | 311° |
| 2026-04-23 15:14 | 55.35515 | -131.70836 | 77 ft | 11 kts | 125° |
| 2026-04-23 15:14 | 55.35455 | -131.70743 | 69 ft | 9 kts | 78° |
| 2026-04-23 15:14 | 55.35445 | -131.70679 | 75 ft | 2 kts | 83° |
| 2026-04-23 15:14 | 55.35444 | -131.70673 | 74 ft | 4 kts | 85° |
| 2026-04-23 15:15 | 55.35451 | -131.70624 | 79 ft | 7 kts | 323° |
| 2026-04-23 15:15 | 55.35467 | -131.70697 | 103 ft | 5 kts | 146° |
| 2026-04-23 15:15 | 55.35436 | -131.70694 | 78 ft | 1 kts | 74° |
| 2026-04-23 15:15 | 55.35426 | -131.70683 | 78 ft | 4 kts | 54° |
| 2026-04-23 15:16 | 55.35443 | -131.70689 | 82 ft | 5 kts | 86° |
| 2026-04-23 15:16 | 55.35445 | -131.70670 | 68 ft | 0 kts | 107° |
| 2026-04-23 15:16 | 55.35442 | -131.70659 | 69 ft | 1 kts | 62° |
| 2026-04-23 15:16 | 55.35447 | -131.70631 | 75 ft | 5 kts | 288° |
| 2026-04-23 15:17 | 55.35453 | -131.70700 | 75 ft | 4 kts | 112° |
| 2026-04-23 15:17 | 55.35444 | -131.70679 | 68 ft | 1 kts | 72° |
| 2026-04-23 15:17 | 55.35445 | -131.70674 | 68 ft | 0 kts | 90° |